This is the latest recevied weather packets stored in our database for station/object K2EJ-13. If no packets are shown the sender has not sent any weather packets the latest 10 day(s).
| Time | Temp. | Humidity | Pressure | Rain* | Wind** | Luminosity | Snow |
|---|---|---|---|---|---|---|---|
| 1777460735 | 12.22° C | 75% | 1014.7 hPa | 0 mm | - | - | - |
| 1777455915 | 12.22° C | 75% | 1015 hPa | 0 mm | - | - | - |
| 1777452315 | 12.22° C | 77% | 1015 hPa | 0 mm | - | - | - |
| 1777451715 | 12.22° C | 77% | 1014.8 hPa | 0 mm | - | - | - |
| 1777451115 | 12.22° C | 75% | 1014.8 hPa | 0 mm | - | - | - |
| 1777450516 | 12.22° C | 75% | 1014.9 hPa | 0 mm | - | - | - |
| 1777447536 | 12.78° C | 77% | 1015 hPa | 0 mm | - | - | - |
| 1777442116 | 12.78° C | 81% | 1016.2 hPa | 0 mm | - | - | - |
| 1777441515 | 12.78° C | 80% | 1016.4 hPa | 0 mm | - | - | - |
| 1777440935 | 12.78° C | 80% | 1016.7 hPa | 0 mm | - | - | - |
| 1777439116 | 12.78° C | 81% | 1016.7 hPa | 0 mm | - | - | - |
| 1777437315 | 13.33° C | 82% | 1016.5 hPa | 0 mm | - | - | - |
| 1777434315 | 13.33° C | 81% | 1016.7 hPa | 0 mm | - | - | - |
| 1777430716 | 13.33° C | 84% | 1017.6 hPa | 0 mm | - | - | - |
| 1777430156 | 13.33° C | 87% | 1017.3 hPa | 0 mm | - | - | - |
| 1777429516 | 13.33° C | 87% | 1017.2 hPa | 0 mm | - | - | - |
| 1777425315 | 13.33° C | 88% | 1016.4 hPa | 0 mm | - | - | - |
| 1777418735 | 14.44° C | 80% | 1017.1 hPa | 0 mm | - | - | - |
| 1777414515 | 15° C | 74% | 1017.4 hPa | 0 mm | - | - | - |
| 1777410936 | 15.56° C | 68% | 1017.3 hPa | 0 mm | - | - | - |
| 1777405515 | 15.56° C | 75% | 1017.9 hPa | 0 mm | - | - | - |
| 1777398956 | 14.44° C | 82% | 1019.1 hPa | 0 mm | - | - | - |
| 1777396516 | 13.89° C | 90% | 1019.3 hPa | 0 mm | - | - | - |
| 1777392316 | 15° C | 82% | 1020.8 hPa | 0 mm | - | - | - |
| 1777391115 | 15° C | 76% | 1021 hPa | 0 mm | - | - | - |
* Rain latest hour (hover to see other rain measurements)
** Current wind speed in m/s (hover to see current wind gust speed)